PWSweather.com
Personal Weather Stations
Station Observations
KAZPHOEN90
RayThunderhill, Phoenix, AZ

RayThunderhillPhoenix, AZ

Lat: 33.312, Lon: -112.029

Elevation: 1260

Station Type: Davis Vantage VUE

Latest ConditionsUpdated 7:45:01 AM MST Tuesday, Aug 30, 2016
Currently Today's Max Today's Min Today's Average
Temperature 89.6°F32.0°C 89.6°F32.0°C 75.3°F24.1°C 80.5°F26.9°C
Dew Point 52.2°F11.2°C 52.6°F11.4°C 44.3°F6.8°C 48.1°F8.9°C
Winds Calm Calm Calm WNWCalm WNW - Calm Calm
Wind Gusts -- -- - -
Humidity 28% 40% 22% 33%
Pressure 29.78 in1008.5 mb 29.78 in1008.5 mb 29.71 in1006.1 mb -
Hour Temp Dew Point Humidity Winds Wind Gusts Pressure Precip Precip Rate Daily Precip Total
07:45 AM 89.6°F32.0°C 52.2°F11.2°C 28% Calm Calm -- 29.78 in1008.5 mb - 0.00 in0.0 mm 0.00 in0.0 mm
07:30 AM 85.9°F29.9°C 52.6°F11.4°C 32% Calm Calm -- 29.77 in1008.1 mb - 0.00 in0.0 mm 0.00 in0.0 mm
07:15 AM 83.2°F28.4°C 51.9°F11.1°C 34% Calm Calm -- 29.77 in1008.1 mb - 0.00 in0.0 mm 0.00 in0.0 mm
07:00 AM 79.3°F26.3°C 50.8°F10.4°C 37% Calm Calm -- 29.77 in1008.1 mb - 0.00 in0.0 mm 0.00 in0.0 mm
06:45 AM 79.2°F26.2°C 49.9°F9.9°C 36% Calm Calm -- 29.76 in1007.8 mb - 0.00 in0.0 mm 0.00 in0.0 mm
06:30 AM 78.5°F25.8°C 47.0°F8.3°C 33% Calm Calm -- 29.76 in1007.8 mb - 0.00 in0.0 mm 0.00 in0.0 mm
06:15 AM 77.9°F25.5°C 45.7°F7.6°C 32% Calm Calm -- 29.75 in1007.5 mb - 0.00 in0.0 mm 0.00 in0.0 mm
06:00 AM 76.4°F24.7°C 47.5°F8.6°C 36% Calm Calm -- 29.75 in1007.5 mb - 0.00 in0.0 mm 0.00 in0.0 mm
05:45 AM 75.7°F24.3°C 48.3°F9.1°C 38% Calm Calm -- 29.75 in1007.5 mb - 0.00 in0.0 mm 0.00 in0.0 mm
05:30 AM 75.3°F24.1°C 48.0°F8.9°C 38% Calm Calm -- 29.74 in1007.1 mb - 0.00 in0.0 mm 0.00 in0.0 mm
05:15 AM 76.1°F24.5°C 49.3°F9.6°C 39% Calm Calm -- 29.74 in1007.1 mb - 0.00 in0.0 mm 0.00 in0.0 mm
05:00 AM 75.7°F24.3°C 49.0°F9.4°C 39% Calm Calm -- 29.73 in1006.8 mb - 0.00 in0.0 mm 0.00 in0.0 mm
04:45 AM 75.9°F24.4°C 47.8°F8.8°C 37% Calm Calm -- 29.73 in1006.8 mb - 0.00 in0.0 mm 0.00 in0.0 mm
04:30 AM 75.6°F24.2°C 49.6°F9.8°C 40% Calm Calm -- 29.72 in1006.4 mb - 0.00 in0.0 mm 0.00 in0.0 mm
04:15 AM 77.1°F25.1°C 48.1°F8.9°C 36% Calm Calm -- 29.72 in1006.4 mb - 0.00 in0.0 mm 0.00 in0.0 mm
04:00 AM 78.3°F25.7°C 48.4°F9.1°C 35% Calm Calm -- 29.72 in1006.4 mb - 0.00 in0.0 mm 0.00 in0.0 mm
03:45 AM 79.3°F26.3°C 49.3°F9.6°C 35% Calm Calm -- 29.72 in1006.4 mb - 0.00 in0.0 mm 0.00 in0.0 mm
03:30 AM 80.1°F26.7°C 48.4°F9.1°C 33% Calm Calm -- 29.71 in1006.1 mb - 0.00 in0.0 mm 0.00 in0.0 mm
03:15 AM 79.3°F26.3°C 48.5°F9.2°C 34% Calm Calm -- 29.72 in1006.4 mb - 0.00 in0.0 mm 0.00 in0.0 mm
03:00 AM 79.5°F26.4°C 47.1°F8.4°C 32% Calm Calm -- 29.72 in1006.4 mb - 0.00 in0.0 mm 0.00 in0.0 mm
02:45 AM 79.7°F26.5°C 46.4°F8.0°C 31% Calm Calm -- 29.72 in1006.4 mb - 0.00 in0.0 mm 0.00 in0.0 mm
02:30 AM 80.0°F26.7°C 49.1°F9.5°C 34% Calm Calm -- 29.71 in1006.1 mb - 0.00 in0.0 mm 0.00 in0.0 mm
02:15 AM 79.9°F26.6°C 48.2°F9.0°C 33% Calm Calm -- 29.71 in1006.1 mb - 0.00 in0.0 mm 0.00 in0.0 mm
02:00 AM 80.6°F27.0°C 47.2°F8.4°C 31% Calm Calm -- 29.71 in1006.1 mb - 0.00 in0.0 mm 0.00 in0.0 mm
01:45 AM 82.4°F28.0°C 46.9°F8.3°C 29% Calm Calm -- 29.71 in1006.1 mb - 0.00 in0.0 mm 0.00 in0.0 mm
01:30 AM 83.3°F28.5°C 46.8°F8.2°C 28% Calm Calm -- 29.72 in1006.4 mb - 0.00 in0.0 mm 0.00 in0.0 mm
01:15 AM 83.8°F28.8°C 46.3°F7.9°C 27% Calm Calm -- 29.72 in1006.4 mb - 0.00 in0.0 mm 0.00 in0.0 mm
01:00 AM 84.8°F29.3°C 45.1°F7.3°C 25% Calm Calm -- 29.71 in1006.1 mb - 0.00 in0.0 mm 0.00 in0.0 mm
12:45 AM 83.9°F28.8°C 45.4°F7.4°C 26% Calm Calm -- 29.71 in1006.1 mb - 0.00 in0.0 mm 0.00 in0.0 mm
12:30 AM 84.4°F29.1°C 46.8°F8.2°C 27% Calm Calm -- 29.71 in1006.1 mb - 0.00 in0.0 mm 0.00 in0.0 mm
12:15 AM 86.5°F30.3°C 46.5°F8.1°C 25% Calm Calm -- 29.71 in1006.1 mb - 0.00 in0.0 mm 0.00 in0.0 mm
12:00 AM 87.9°F31.1°C 44.3°F6.8°C 22% Calm Calm -- 29.71 in1006.1 mb - 0.00 in0.0 mm 0.00 in0.0 mm